createdAt,value
2023-03-05T00:02:40.051Z,2.5
2023-03-05T00:07:40.090Z,2.4
2023-03-05T00:12:40.032Z,2.4
2023-03-05T00:17:39.976Z,2.4
2023-03-05T00:22:39.890Z,2.4
2023-03-05T00:27:39.892Z,2.4
2023-03-05T00:32:39.857Z,2.4
2023-03-05T00:37:40.013Z,2.5
2023-03-05T00:42:39.897Z,2.5
2023-03-05T00:47:39.958Z,2.5
2023-03-05T00:52:39.903Z,2.5
2023-03-05T00:57:39.871Z,2.5
2023-03-05T01:02:39.857Z,2.5
2023-03-05T01:07:39.743Z,2.5
2023-03-05T01:12:39.850Z,2.5
2023-03-05T01:17:39.776Z,2.5
2023-03-05T01:22:39.751Z,2.5
2023-03-05T01:27:39.736Z,2.5
2023-03-05T01:32:39.784Z,2.4
2023-03-05T01:37:39.696Z,2.4
2023-03-05T01:42:39.628Z,2.4
2023-03-05T01:47:39.695Z,2.4
2023-03-05T01:52:39.686Z,2.4
2023-03-05T01:57:39.556Z,2.4
2023-03-05T02:02:39.578Z,2.4
2023-03-05T02:07:39.500Z,2.4
2023-03-05T02:12:39.494Z,2.4
2023-03-05T02:17:39.486Z,2.4
2023-03-05T02:22:39.474Z,2.4
2023-03-05T02:27:39.486Z,2.4
2023-03-05T02:32:39.512Z,2.4
2023-03-05T02:37:39.427Z,2.4
2023-03-05T02:42:39.444Z,2.4
2023-03-05T02:47:39.381Z,2.4
2023-03-05T02:52:39.409Z,2.4
2023-03-05T02:57:39.437Z,2.4
2023-03-05T03:02:39.335Z,2.4
2023-03-05T03:07:39.333Z,2.4
2023-03-05T03:12:39.350Z,2.4
2023-03-05T03:17:39.308Z,2.4
2023-03-05T03:22:39.321Z,2.4
2023-03-05T03:27:39.316Z,2.4
2023-03-05T03:32:39.245Z,2.4
2023-03-05T03:37:39.240Z,2.4
2023-03-05T03:42:39.230Z,2.4
2023-03-05T03:47:39.178Z,2.4
2023-03-05T03:52:39.172Z,2.4
2023-03-05T03:57:39.167Z,2.4
2023-03-05T04:02:39.131Z,2.4
2023-03-05T04:07:39.125Z,2.4
2023-03-05T04:12:39.109Z,2.4
2023-03-05T04:17:39.114Z,2.4
2023-03-05T04:22:39.069Z,2.4
2023-03-05T04:27:39.048Z,2.4
2023-03-05T04:32:39.144Z,2.3
2023-03-05T04:37:39.015Z,2.4
2023-03-05T04:42:39.022Z,2.3
2023-03-05T04:47:39.001Z,2.4
2023-03-05T04:52:38.951Z,2.4
2023-03-05T04:57:39.018Z,2.3
2023-03-05T05:02:38.958Z,2.3
2023-03-05T05:07:38.977Z,2.3
2023-03-05T05:12:38.896Z,2.3
2023-03-05T05:17:38.981Z,2.3
2023-03-05T05:22:38.902Z,2.3
2023-03-05T05:27:38.848Z,2.3
2023-03-05T05:32:38.885Z,2.3
2023-03-05T05:37:38.816Z,2.3
2023-03-05T05:42:38.843Z,2.3
2023-03-05T05:47:38.775Z,2.3
2023-03-05T05:52:38.782Z,2.3
2023-03-05T05:57:38.792Z,2.3
2023-03-05T06:02:38.728Z,2.3
2023-03-05T06:07:38.714Z,2.3
2023-03-05T06:12:38.727Z,2.4
2023-03-05T06:17:38.728Z,2.3
2023-03-05T06:22:38.670Z,2.4
2023-03-05T06:27:38.647Z,2.4
2023-03-05T06:32:38.724Z,2.4
2023-03-05T06:37:38.724Z,2.4
2023-03-05T06:42:38.625Z,2.4
2023-03-05T06:47:38.612Z,2.4
2023-03-05T06:52:38.634Z,2.3
2023-03-05T06:57:38.537Z,2.3
2023-03-05T07:02:38.645Z,2.4
2023-03-05T07:07:38.499Z,2.4
2023-03-05T07:12:38.500Z,2.4
2023-03-05T07:17:38.499Z,2.4
2023-03-05T07:22:38.558Z,2.5
2023-03-05T07:27:38.440Z,2.5
2023-03-05T07:32:38.411Z,2.5
2023-03-05T07:37:38.565Z,2.5
2023-03-05T07:42:38.477Z,2.6
2023-03-05T07:47:38.357Z,2.6
2023-03-05T07:52:38.350Z,2.7
2023-03-05T07:57:38.382Z,2.7
2023-03-05T08:02:38.314Z,2.8
2023-03-05T08:07:38.411Z,2.8
2023-03-05T08:12:38.416Z,2.9
2023-03-05T08:17:38.263Z,2.9
2023-03-05T08:22:38.303Z,3
2023-03-05T08:27:38.244Z,3
2023-03-05T08:32:38.305Z,3
2023-03-05T08:37:38.193Z,3.1
2023-03-05T08:42:38.176Z,3.1
2023-03-05T08:47:38.192Z,3.2
2023-03-05T08:52:38.153Z,3.2
2023-03-05T08:57:38.125Z,3.3
2023-03-05T09:02:38.108Z,3.3
2023-03-05T09:07:38.083Z,3.3
2023-03-05T09:12:38.074Z,3.4
2023-03-05T09:17:38.131Z,3.5
2023-03-05T09:22:38.052Z,3.6
2023-03-05T09:27:38.019Z,3.8
2023-03-05T09:32:38.006Z,3.9
2023-03-05T09:37:38.026Z,4
2023-03-05T09:42:38.034Z,4
2023-03-05T09:47:38.015Z,4.2
2023-03-05T09:52:37.931Z,4.2
2023-03-05T09:57:37.909Z,4.2
2023-03-05T10:02:37.984Z,4.3
2023-03-05T10:07:37.891Z,4.4
2023-03-05T10:12:37.860Z,4.6
2023-03-05T10:17:37.837Z,4.7
2023-03-05T10:22:37.840Z,4.8
2023-03-05T10:27:37.812Z,4.9
2023-03-05T10:32:37.794Z,4.9
2023-03-05T10:37:37.778Z,5
2023-03-05T10:42:37.766Z,5.1
2023-03-05T10:47:37.727Z,5.2
2023-03-05T10:52:37.721Z,5.3
2023-03-05T10:57:37.704Z,5.5
2023-03-05T11:02:37.675Z,5.5
2023-03-05T11:07:37.661Z,5.6
2023-03-05T11:12:37.664Z,5.6
2023-03-05T11:17:37.650Z,5.6
2023-03-05T11:22:37.663Z,5.6
2023-03-05T11:27:37.623Z,5.7
2023-03-05T11:32:37.620Z,5.6
2023-03-05T11:37:37.640Z,5.7
2023-03-05T11:42:37.626Z,5.7
2023-03-05T11:47:37.510Z,5.8
2023-03-05T11:52:37.487Z,5.8
2023-03-05T11:57:37.548Z,5.9
2023-03-05T12:02:37.454Z,6
2023-03-05T12:07:37.436Z,6.1
2023-03-05T12:12:37.449Z,6.1
2023-03-05T12:17:37.425Z,6.2
2023-03-05T12:22:37.390Z,6.2
2023-03-05T12:27:37.392Z,6.2
2023-03-05T12:32:37.438Z,6.3
2023-03-05T12:37:37.346Z,6.3
2023-03-05T12:42:37.332Z,6.3
2023-03-05T12:47:37.455Z,6.3
2023-03-05T12:52:37.307Z,6.4
2023-03-05T12:57:37.275Z,6.4
2023-03-05T13:02:37.274Z,6.5
2023-03-05T13:07:37.289Z,6.5
2023-03-05T13:12:37.194Z,6.5
2023-03-05T13:17:37.217Z,6.5
2023-03-05T13:22:37.153Z,6.5
2023-03-05T13:27:37.159Z,6.5
2023-03-05T13:32:37.150Z,6.6
2023-03-05T13:37:37.247Z,6.6
2023-03-05T13:42:37.196Z,6.6
2023-03-05T13:47:37.221Z,6.6
2023-03-05T13:52:37.108Z,6.6
2023-03-05T13:57:37.071Z,6.6
2023-03-05T14:02:37.114Z,6.6
2023-03-05T14:07:36.990Z,6.6
2023-03-05T14:12:37.086Z,6.6
2023-03-05T14:17:36.949Z,6.6
2023-03-05T14:22:36.936Z,6.6
2023-03-05T14:27:36.957Z,6.6
2023-03-05T14:32:36.989Z,6.6
2023-03-05T14:37:36.865Z,6.6
2023-03-05T14:42:36.922Z,6.6
2023-03-05T14:47:37.002Z,6.6
2023-03-05T14:52:36.892Z,6.5
2023-03-05T14:57:36.803Z,6.5
2023-03-05T15:02:36.891Z,6.4
2023-03-05T15:07:36.770Z,6.4
2023-03-05T15:12:36.881Z,6.3
2023-03-05T15:17:36.772Z,6.3
2023-03-05T15:22:36.760Z,6.3
2023-03-05T15:27:36.685Z,6.3
2023-03-05T15:32:36.702Z,6.2
2023-03-05T15:37:36.679Z,6.2
2023-03-05T15:42:36.724Z,6.2
2023-03-05T15:47:36.611Z,6.1
2023-03-05T15:52:36.625Z,6.1
2023-03-05T15:57:36.577Z,6.1
2023-03-05T16:02:36.580Z,6
2023-03-05T16:07:36.542Z,6
2023-03-05T16:12:36.545Z,5.9
2023-03-05T16:17:36.683Z,5.8
2023-03-05T16:22:36.591Z,5.8
2023-03-05T16:27:36.470Z,5.7
2023-03-05T16:32:36.507Z,5.7
2023-03-05T16:37:36.512Z,5.6
2023-03-05T16:42:36.420Z,5.6
2023-03-05T16:47:36.479Z,5.5
2023-03-05T16:52:36.408Z,5.5
2023-03-05T16:57:36.381Z,5.5
2023-03-05T17:02:36.401Z,5.5
2023-03-05T17:07:36.518Z,5.4
2023-03-05T17:12:36.310Z,5.4
2023-03-05T17:17:36.396Z,5.4
2023-03-05T17:22:36.366Z,5.3
2023-03-05T17:27:36.296Z,5.3
2023-03-05T17:32:36.266Z,5.3
2023-03-05T17:37:36.336Z,5.3
2023-03-05T17:42:36.317Z,5.3
2023-03-05T17:47:36.272Z,5.2
2023-03-05T17:52:36.181Z,5.2
2023-03-05T17:57:36.154Z,5.1
2023-03-05T18:02:36.192Z,5.1
2023-03-05T18:07:36.120Z,5.1
2023-03-05T18:12:36.104Z,5.1
2023-03-05T18:17:36.086Z,5.1
2023-03-05T18:22:36.129Z,5
2023-03-05T18:27:36.030Z,5
2023-03-05T18:32:36.017Z,4.9
2023-03-05T18:37:36.037Z,4.8
2023-03-05T18:42:35.990Z,4.8
2023-03-05T18:47:35.963Z,4.7
2023-03-05T18:52:35.941Z,4.7
2023-03-05T18:57:35.930Z,4.7
2023-03-05T19:02:35.903Z,4.7
2023-03-05T19:07:35.922Z,4.7
2023-03-05T19:12:35.913Z,4.7
2023-03-05T19:17:35.919Z,4.7
2023-03-05T19:22:35.837Z,4.7
2023-03-05T19:27:35.859Z,4.7
2023-03-05T19:32:35.883Z,4.7
2023-03-05T19:37:35.948Z,4.7
2023-03-05T19:42:35.844Z,4.6
2023-03-05T19:47:35.914Z,4.6
2023-03-05T19:52:35.909Z,4.6
2023-03-05T19:57:35.781Z,4.5
2023-03-05T20:02:35.688Z,4.5
2023-03-05T20:07:35.673Z,4.5
2023-03-05T20:12:35.678Z,4.5
2023-03-05T20:17:35.633Z,4.4
2023-03-05T20:22:35.637Z,4.4
2023-03-05T20:27:35.631Z,4.3
2023-03-05T20:32:35.600Z,4.3
2023-03-05T20:37:35.570Z,4.3
2023-03-05T20:42:35.582Z,4.3
2023-03-05T20:47:35.555Z,4.2
2023-03-05T20:52:35.520Z,4.2
2023-03-05T20:57:35.514Z,4.2
2023-03-05T21:02:35.490Z,4.2
2023-03-05T21:07:35.518Z,4.2
2023-03-05T21:12:35.453Z,4.2
2023-03-05T21:17:35.432Z,4.1
2023-03-05T21:22:35.453Z,4.1
2023-03-05T21:27:35.466Z,4
2023-03-05T21:32:35.426Z,4
2023-03-05T21:37:35.358Z,4
2023-03-05T21:42:35.345Z,4
2023-03-05T21:47:35.342Z,4
2023-03-05T21:52:35.390Z,3.9
2023-03-05T21:57:35.368Z,3.9
2023-03-05T22:02:35.289Z,3.9
2023-03-05T22:07:35.252Z,3.9
2023-03-05T22:12:35.235Z,3.9
2023-03-05T22:17:35.207Z,3.9
2023-03-05T22:22:35.192Z,3.8
2023-03-05T22:27:35.167Z,3.8
2023-03-05T22:32:35.151Z,3.8
2023-03-05T22:37:35.152Z,3.8
2023-03-05T22:42:35.157Z,3.8
2023-03-05T22:47:35.101Z,3.8
2023-03-05T22:52:35.245Z,3.8
2023-03-05T22:57:35.075Z,3.7
2023-03-05T23:02:35.134Z,3.7
2023-03-05T23:07:35.032Z,3.7
2023-03-05T23:12:35.065Z,3.6
2023-03-05T23:17:35.072Z,3.6
2023-03-05T23:22:35.003Z,3.6
2023-03-05T23:27:34.977Z,3.6
2023-03-05T23:32:34.960Z,3.6
2023-03-05T23:37:34.940Z,3.5
2023-03-05T23:42:34.973Z,3.5
2023-03-05T23:52:34.899Z,3.5
2023-03-05T23:57:34.862Z,3.5
